createdAt,value
2019-05-31T00:00:31.955Z,5.42
2019-05-31T00:01:05.764Z,4.25
2019-05-31T00:01:39.642Z,4.53
2019-05-31T00:02:13.523Z,4.20
2019-05-31T00:02:47.016Z,3.77
2019-05-31T00:03:20.896Z,4.25
2019-05-31T00:03:55.239Z,4.17
2019-05-31T00:04:29.076Z,4.45
2019-05-31T00:05:02.953Z,4.10
2019-05-31T00:05:36.819Z,4.25
2019-05-31T00:06:11.195Z,3.90
2019-05-31T00:06:45.147Z,4.05
2019-05-31T00:07:19.386Z,4.25
2019-05-31T00:07:52.989Z,4.00
2019-05-31T00:08:26.866Z,4.65
2019-05-31T00:09:01.923Z,4.00
2019-05-31T00:09:38.683Z,4.17
2019-05-31T00:10:12.789Z,3.60
2019-05-31T00:10:46.690Z,3.90
2019-05-31T00:11:20.634Z,4.17
2019-05-31T00:11:54.595Z,3.85
2019-05-31T00:12:28.521Z,3.95
2019-05-31T00:13:02.381Z,4.40
2019-05-31T00:13:36.466Z,4.03
2019-05-31T00:14:20.241Z,4.00
2019-05-31T00:14:45.527Z,3.85
2019-05-31T00:15:19.474Z,4.30
2019-05-31T00:15:54.517Z,3.90
2019-05-31T00:16:28.547Z,4.10
2019-05-31T00:17:03.343Z,4.20
2019-05-31T00:17:37.575Z,3.83
2019-05-31T00:18:11.184Z,4.30
2019-05-31T00:18:45.085Z,4.90
2019-05-31T00:19:18.963Z,4.12
2019-05-31T00:19:52.757Z,4.05
2019-05-31T00:20:26.821Z,4.20
2019-05-31T00:21:01.212Z,4.10
2019-05-31T00:21:34.705Z,4.10
2019-05-31T00:22:09.360Z,4.47
2019-05-31T00:22:43.442Z,4.12
2019-05-31T00:23:16.952Z,4.12
2019-05-31T00:23:50.817Z,4.05
2019-05-31T00:24:24.809Z,4.47
2019-05-31T00:24:58.397Z,3.75
2019-05-31T00:25:32.349Z,3.70
2019-05-31T00:26:06.941Z,4.85
2019-05-31T00:26:40.454Z,4.47
2019-05-31T00:27:14.350Z,4.65
2019-05-31T00:27:48.228Z,4.50
2019-05-31T00:28:21.735Z,4.00
2019-05-31T00:28:56.722Z,4.50
2019-05-31T00:29:30.751Z,4.05
2019-05-31T00:30:05.342Z,4.40
2019-05-31T00:30:39.366Z,5.20
2019-05-31T00:31:14.326Z,4.12
2019-05-31T00:31:47.921Z,4.40
2019-05-31T00:32:21.836Z,4.35
2019-05-31T00:32:56.215Z,4.70
2019-05-31T00:33:29.826Z,4.65
2019-05-31T00:34:03.785Z,4.30
2019-05-31T00:34:37.771Z,4.20
2019-05-31T00:35:11.383Z,4.05
2019-05-31T00:35:45.338Z,3.95
2019-05-31T00:36:19.925Z,4.58
2019-05-31T00:36:54.531Z,4.42
2019-05-31T00:37:28.635Z,4.45
2019-05-31T00:38:03.766Z,4.70
2019-05-31T00:38:37.391Z,4.20
2019-05-31T00:39:11.290Z,4.40
2019-05-31T00:39:45.211Z,4.47
2019-05-31T00:40:20.940Z,4.75
2019-05-31T00:40:55.102Z,4.17
2019-05-31T00:41:29.512Z,4.80
2019-05-31T00:42:03.528Z,5.05
2019-05-31T00:42:37.502Z,4.72
2019-05-31T00:43:11.466Z,4.67
2019-05-31T00:43:45.024Z,3.80
2019-05-31T00:44:32.176Z,3.80
2019-05-31T00:44:55.059Z,4.30
2019-05-31T00:45:28.677Z,4.90
2019-05-31T00:46:03.700Z,4.42
2019-05-31T00:46:38.131Z,4.37
2019-05-31T00:47:11.650Z,5.00
2019-05-31T00:47:45.549Z,4.53
2019-05-31T00:48:19.442Z,4.80
2019-05-31T00:48:53.065Z,4.50
2019-05-31T00:49:27.013Z,4.33
2019-05-31T00:50:02.094Z,4.50
2019-05-31T00:50:35.877Z,5.28
2019-05-31T00:51:09.937Z,4.50
2019-05-31T00:51:44.034Z,4.30
2019-05-31T00:52:17.992Z,4.60
2019-05-31T00:52:52.544Z,4.78
2019-05-31T00:53:26.653Z,4.25
2019-05-31T00:54:00.617Z,4.50
2019-05-31T00:54:34.542Z,4.15
2019-05-31T00:55:08.880Z,4.25
2019-05-31T00:55:42.513Z,5.37
2019-05-31T00:56:16.428Z,4.70
2019-05-31T00:56:50.347Z,4.62
2019-05-31T00:57:24.175Z,4.55
2019-05-31T00:57:58.310Z,4.55
2019-05-31T00:58:32.822Z,5.25
2019-05-31T00:59:07.058Z,4.37
2019-05-31T00:59:44.505Z,4.60
2019-05-31T01:00:19.390Z,4.55
2019-05-31T01:00:53.234Z,4.67
2019-05-31T01:01:28.011Z,4.72
2019-05-31T01:02:03.038Z,4.35
2019-05-31T01:02:40.372Z,4.37
2019-05-31T01:03:12.716Z,4.45
2019-05-31T01:03:47.071Z,4.22
2019-05-31T01:04:20.957Z,4.80
2019-05-31T01:04:57.058Z,4.72
2019-05-31T01:05:31.682Z,4.70
2019-05-31T01:06:05.628Z,4.25
2019-05-31T01:06:39.667Z,4.30
2019-05-31T01:07:13.750Z,5.10
2019-05-31T01:07:47.491Z,4.42
2019-05-31T01:08:21.769Z,4.65
2019-05-31T01:08:57.216Z,4.80
2019-05-31T01:09:31.016Z,4.55
2019-05-31T01:10:07.827Z,5.05
2019-05-31T01:10:42.695Z,4.42
2019-05-31T01:11:16.294Z,4.62
2019-05-31T01:11:51.215Z,4.70
2019-05-31T01:12:34.235Z,4.78
2019-05-31T01:13:07.945Z,4.33
2019-05-31T01:13:42.226Z,5.08
2019-05-31T01:14:16.218Z,5.08
2019-05-31T01:14:50.449Z,5.12
2019-05-31T01:15:24.473Z,4.85
2019-05-31T01:15:58.313Z,4.70
2019-05-31T01:16:31.882Z,6.83
2019-05-31T01:17:06.469Z,7.47
2019-05-31T01:17:40.637Z,5.90
2019-05-31T01:18:14.133Z,5.72
2019-05-31T01:18:48.118Z,5.80
2019-05-31T01:19:21.991Z,5.60
2019-05-31T01:19:55.599Z,6.20
2019-05-31T01:20:29.498Z,5.90
2019-05-31T01:21:04.719Z,5.75
2019-05-31T01:21:38.492Z,5.05
2019-05-31T01:22:12.735Z,6.08
2019-05-31T01:22:46.757Z,4.95
2019-05-31T01:23:20.310Z,5.25
2019-05-31T01:23:54.337Z,5.35
2019-05-31T01:24:28.540Z,4.67
2019-05-31T01:25:02.991Z,5.17
2019-05-31T01:25:37.010Z,5.03
2019-05-31T01:26:10.965Z,5.35
2019-05-31T01:26:44.442Z,5.17
2019-05-31T01:27:18.677Z,5.97
2019-05-31T01:27:52.715Z,5.50
2019-05-31T01:28:26.204Z,5.00
2019-05-31T01:29:00.070Z,5.30
2019-05-31T01:29:33.943Z,4.83
2019-05-31T01:30:09.931Z,5.12
2019-05-31T01:30:44.519Z,5.25
2019-05-31T01:31:18.861Z,5.58
2019-05-31T01:31:52.865Z,5.22
2019-05-31T01:32:27.180Z,5.35
2019-05-31T01:33:01.831Z,5.67
2019-05-31T01:33:35.879Z,5.10
2019-05-31T01:34:10.262Z,5.40
2019-05-31T01:34:44.408Z,5.60
2019-05-31T01:35:18.585Z,5.55
2019-05-31T01:35:52.664Z,5.42
2019-05-31T01:36:26.899Z,5.45
2019-05-31T01:37:02.119Z,5.17
2019-05-31T01:37:36.356Z,5.00
2019-05-31T01:38:10.633Z,5.28
2019-05-31T01:38:44.514Z,4.75
2019-05-31T01:39:18.897Z,5.28
2019-05-31T01:39:53.052Z,5.37
2019-05-31T01:40:26.729Z,5.33
2019-05-31T01:41:00.922Z,5.40
2019-05-31T01:41:35.087Z,5.55
2019-05-31T01:42:08.955Z,5.55
2019-05-31T01:42:44.573Z,5.58
2019-05-31T01:43:18.618Z,5.40
2019-05-31T01:43:52.064Z,5.20
2019-05-31T01:44:26.028Z,5.87
2019-05-31T01:45:09.000Z,6.25
2019-05-31T01:45:35.827Z,5.45
2019-05-31T01:46:10.003Z,4.70
2019-05-31T01:46:44.328Z,5.08
2019-05-31T01:47:18.869Z,5.17
2019-05-31T01:47:53.030Z,5.92
2019-05-31T01:48:28.503Z,6.75
2019-05-31T01:49:03.576Z,6.37
2019-05-31T01:49:40.129Z,6.30
2019-05-31T01:50:14.605Z,6.47
2019-05-31T01:50:48.504Z,5.30
2019-05-31T01:51:23.131Z,6.42
2019-05-31T01:51:57.560Z,5.55
2019-05-31T01:52:31.760Z,5.55
2019-05-31T01:53:06.199Z,6.08
2019-05-31T01:53:43.442Z,5.53
2019-05-31T01:54:17.523Z,6.45
2019-05-31T01:54:51.799Z,6.55
2019-05-31T01:55:26.194Z,6.40
2019-05-31T01:56:02.240Z,6.15
2019-05-31T01:56:36.668Z,6.00
2019-05-31T01:57:12.611Z,4.90
2019-05-31T01:57:46.241Z,6.20
2019-05-31T01:58:20.194Z,6.10
2019-05-31T01:58:54.059Z,5.42
2019-05-31T01:59:27.573Z,5.33
2019-05-31T02:00:02.866Z,6.05
2019-05-31T02:00:36.974Z,5.28
2019-05-31T02:01:11.409Z,5.25
2019-05-31T02:01:45.672Z,5.67
2019-05-31T02:02:19.555Z,5.75
2019-05-31T02:02:53.042Z,5.55
2019-05-31T02:03:26.935Z,5.70
2019-05-31T02:04:00.846Z,5.78
2019-05-31T02:04:34.425Z,5.87
2019-05-31T02:05:08.587Z,6.08
2019-05-31T02:05:42.819Z,5.78
2019-05-31T02:06:18.915Z,5.45
2019-05-31T02:06:51.885Z,6.15
2019-05-31T02:07:26.103Z,5.40
2019-05-31T02:07:59.642Z,5.65
2019-05-31T02:08:33.451Z,5.47
2019-05-31T02:09:08.723Z,5.30
2019-05-31T02:09:42.353Z,5.60
2019-05-31T02:10:17.217Z,5.70
2019-05-31T02:10:51.363Z,5.60
2019-05-31T02:11:24.857Z,5.20
2019-05-31T02:11:58.726Z,5.20
2019-05-31T02:12:33.151Z,5.87
2019-05-31T02:13:07.029Z,6.03
2019-05-31T02:13:41.193Z,5.65
2019-05-31T02:14:16.203Z,5.80
2019-05-31T02:14:49.935Z,5.90
2019-05-31T02:15:32.550Z,5.80
2019-05-31T02:16:08.350Z,5.40
2019-05-31T02:16:45.014Z,5.65
2019-05-31T02:17:21.947Z,5.58
2019-05-31T02:17:56.948Z,5.42
2019-05-31T02:18:33.183Z,5.92
2019-05-31T02:19:07.689Z,5.95
2019-05-31T02:19:43.508Z,5.60
2019-05-31T02:20:20.323Z,6.12
2019-05-31T02:20:54.258Z,6.20
2019-05-31T02:21:28.121Z,5.40
2019-05-31T02:22:01.640Z,5.80
2019-05-31T02:22:35.569Z,5.20
2019-05-31T02:23:09.751Z,5.85
2019-05-31T02:23:43.507Z,5.40
2019-05-31T02:24:17.510Z,6.45
2019-05-31T02:24:51.753Z,6.10
2019-05-31T02:25:25.243Z,6.10
2019-05-31T02:25:59.159Z,5.80
2019-05-31T02:26:33.258Z,6.12
2019-05-31T02:27:07.195Z,6.15
2019-05-31T02:27:41.598Z,5.58
2019-05-31T02:28:15.663Z,5.45
2019-05-31T02:28:49.224Z,6.33
2019-05-31T02:29:23.090Z,5.75
2019-05-31T02:29:56.961Z,6.28
2019-05-31T02:30:30.442Z,6.05
2019-05-31T02:31:06.004Z,5.75
2019-05-31T02:31:40.054Z,5.92
2019-05-31T02:32:15.460Z,6.65
2019-05-31T02:32:49.997Z,5.60
2019-05-31T02:33:23.858Z,5.72
2019-05-31T02:33:57.356Z,6.50
2019-05-31T02:34:31.232Z,5.70
2019-05-31T02:35:06.684Z,6.00
2019-05-31T02:35:40.862Z,6.17
2019-05-31T02:36:15.754Z,6.15
2019-05-31T02:36:50.416Z,5.55
2019-05-31T02:37:23.909Z,6.20
2019-05-31T02:37:58.147Z,5.75
2019-05-31T02:38:32.087Z,6.22
2019-05-31T02:39:07.079Z,6.40
2019-05-31T02:39:41.730Z,5.78
2019-05-31T02:40:16.981Z,5.87
2019-05-31T02:40:51.095Z,6.05
2019-05-31T02:41:25.069Z,6.22
2019-05-31T02:41:58.992Z,6.40
2019-05-31T02:42:32.483Z,6.15
2019-05-31T02:43:09.254Z,6.40
2019-05-31T02:43:43.159Z,5.70
2019-05-31T02:44:18.413Z,6.37
2019-05-31T02:44:52.527Z,6.22
2019-05-31T02:45:45.182Z,6.35
2019-05-31T02:46:01.732Z,6.10
2019-05-31T02:46:35.624Z,5.50
2019-05-31T02:47:09.661Z,5.90
2019-05-31T02:47:43.351Z,6.35
2019-05-31T02:48:19.054Z,5.87
2019-05-31T02:48:53.232Z,5.22
2019-05-31T02:49:26.895Z,5.55
2019-05-31T02:50:00.696Z,6.25
2019-05-31T02:50:36.150Z,5.33
2019-05-31T02:51:10.767Z,5.90
2019-05-31T02:51:45.593Z,5.87
2019-05-31T02:52:19.896Z,5.80
2019-05-31T02:52:53.670Z,5.83
2019-05-31T02:53:27.558Z,5.85
2019-05-31T02:54:01.436Z,6.05
2019-05-31T02:54:34.906Z,5.45
2019-05-31T02:55:10.564Z,5.80
2019-05-31T02:55:46.429Z,6.20
2019-05-31T02:56:20.677Z,6.80
2019-05-31T02:56:55.741Z,6.65
2019-05-31T02:57:31.074Z,5.47
2019-05-31T02:58:04.623Z,6.85
2019-05-31T02:58:38.867Z,6.30
2019-05-31T02:59:13.058Z,6.08
2019-05-31T02:59:51.578Z,5.60
2019-05-31T03:00:22.834Z,6.33
2019-05-31T03:00:56.723Z,6.60
2019-05-31T03:01:30.616Z,6.20
2019-05-31T03:02:04.611Z,6.60
2019-05-31T03:02:40.528Z,5.95
2019-05-31T03:03:17.738Z,5.83
2019-05-31T03:03:52.706Z,6.08
2019-05-31T03:04:26.789Z,6.25
2019-05-31T03:05:02.059Z,5.87
2019-05-31T03:05:36.453Z,6.30
2019-05-31T03:06:11.955Z,6.00
2019-05-31T03:06:47.575Z,6.12
2019-05-31T03:07:23.251Z,6.25
2019-05-31T03:07:57.139Z,6.35
2019-05-31T03:08:32.045Z,6.10
2019-05-31T03:09:06.722Z,5.90
2019-05-31T03:09:42.310Z,6.20
2019-05-31T03:10:17.954Z,6.35
2019-05-31T03:10:52.192Z,5.53
2019-05-31T03:11:27.615Z,6.45
2019-05-31T03:12:01.167Z,6.03
2019-05-31T03:12:37.189Z,5.55
2019-05-31T03:13:12.827Z,6.00
2019-05-31T03:13:47.319Z,5.30
2019-05-31T03:14:21.563Z,6.12
2019-05-31T03:14:56.903Z,6.42
2019-05-31T03:15:30.395Z,6.28
2019-05-31T03:16:07.791Z,6.10
2019-05-31T03:16:40.151Z,6.85
2019-05-31T03:17:15.260Z,6.10
2019-05-31T03:17:49.602Z,5.92
2019-05-31T03:18:23.508Z,5.87
2019-05-31T03:18:57.023Z,6.22
2019-05-31T03:19:30.898Z,6.10
2019-05-31T03:20:05.156Z,6.60
2019-05-31T03:20:38.641Z,5.53
2019-05-31T03:21:14.395Z,6.00
2019-05-31T03:21:48.119Z,6.60
2019-05-31T03:22:22.430Z,6.40
2019-05-31T03:22:56.396Z,6.25
2019-05-31T03:23:30.268Z,6.03
2019-05-31T03:24:04.066Z,6.87
2019-05-31T03:24:37.946Z,5.90
2019-05-31T03:25:12.462Z,6.05
2019-05-31T03:25:46.453Z,6.50
2019-05-31T03:26:20.830Z,6.55
2019-05-31T03:26:54.875Z,6.28
2019-05-31T03:27:28.395Z,7.00
2019-05-31T03:28:02.267Z,6.95
2019-05-31T03:28:36.140Z,6.92
2019-05-31T03:29:10.551Z,6.67
2019-05-31T03:29:44.426Z,6.70
2019-05-31T03:30:23.579Z,6.33
2019-05-31T03:30:53.463Z,7.00
2019-05-31T03:31:35.705Z,6.62
2019-05-31T03:32:05.848Z,5.87
2019-05-31T03:32:39.853Z,6.58
2019-05-31T03:33:16.717Z,7.15
2019-05-31T03:33:50.230Z,6.62
2019-05-31T03:34:31.431Z,6.70
2019-05-31T03:34:59.396Z,6.20
2019-05-31T03:35:38.229Z,6.75
2019-05-31T03:36:08.518Z,5.50
2019-05-31T03:36:42.431Z,6.40
2019-05-31T03:37:16.691Z,6.83
2019-05-31T03:37:50.253Z,6.42
2019-05-31T03:38:24.144Z,6.80
2019-05-31T03:38:58.370Z,6.50
2019-05-31T03:39:31.866Z,6.90
2019-05-31T03:40:05.993Z,6.08
2019-05-31T03:40:39.951Z,6.05
2019-05-31T03:41:14.438Z,6.45
2019-05-31T03:41:48.418Z,6.15
2019-05-31T03:42:22.579Z,6.35
2019-05-31T03:42:56.270Z,6.30
2019-05-31T03:43:30.162Z,6.25
2019-05-31T03:44:04.594Z,6.25
2019-05-31T03:44:38.101Z,6.65
2019-05-31T03:45:12.199Z,6.25
2019-05-31T03:45:46.128Z,6.17
2019-05-31T03:46:33.388Z,6.55
2019-05-31T03:46:55.227Z,5.90
2019-05-31T03:47:29.145Z,6.40
2019-05-31T03:48:02.634Z,6.97
2019-05-31T03:48:36.772Z,6.50
2019-05-31T03:49:10.661Z,6.85
2019-05-31T03:49:44.158Z,6.60
2019-05-31T03:50:19.296Z,6.62
2019-05-31T03:50:53.790Z,6.53
2019-05-31T03:51:27.571Z,6.95
2019-05-31T03:52:01.707Z,6.35
2019-05-31T03:52:37.774Z,7.28
2019-05-31T03:53:11.300Z,6.55
2019-05-31T03:53:45.195Z,7.05
2019-05-31T03:54:19.288Z,6.42
2019-05-31T03:54:53.381Z,6.20
2019-05-31T03:55:27.465Z,7.17
2019-05-31T03:56:01.535Z,6.37
2019-05-31T03:56:35.035Z,7.03
2019-05-31T03:57:08.930Z,6.45
2019-05-31T03:57:42.866Z,6.37
2019-05-31T03:58:17.678Z,6.25
2019-05-31T03:58:51.973Z,6.15
2019-05-31T03:59:27.470Z,6.22
2019-05-31T04:00:01.130Z,6.08
2019-05-31T04:01:00.279Z,6.17
2019-05-31T04:01:34.374Z,7.03
2019-05-31T04:02:07.941Z,7.45
2019-05-31T04:02:41.843Z,6.87
2019-05-31T04:03:16.441Z,6.45
2019-05-31T04:03:50.077Z,7.12
2019-05-31T04:04:24.635Z,6.30
2019-05-31T04:04:59.513Z,7.30
2019-05-31T04:05:33.025Z,6.12
2019-05-31T04:06:06.966Z,6.25
2019-05-31T04:06:40.868Z,6.70
2019-05-31T04:07:14.911Z,7.28
2019-05-31T04:07:49.319Z,6.33
2019-05-31T04:08:25.655Z,6.45
2019-05-31T04:08:58.397Z,6.78
2019-05-31T04:09:33.247Z,7.10
2019-05-31T04:10:07.547Z,6.15
2019-05-31T04:10:41.080Z,7.17
2019-05-31T04:11:15.149Z,7.00
2019-05-31T04:11:49.569Z,6.72
2019-05-31T04:12:24.325Z,6.70
2019-05-31T04:12:58.714Z,6.80
2019-05-31T04:13:32.605Z,6.92
2019-05-31T04:14:06.093Z,7.15
2019-05-31T04:14:40.550Z,6.30
2019-05-31T04:15:15.430Z,6.92
2019-05-31T04:15:49.380Z,7.12
2019-05-31T04:16:24.729Z,6.70
2019-05-31T04:16:58.965Z,7.08
2019-05-31T04:17:32.450Z,6.85
2019-05-31T04:18:06.325Z,6.42
2019-05-31T04:18:40.192Z,6.60
2019-05-31T04:19:15.210Z,7.55
2019-05-31T04:19:50.364Z,6.72
2019-05-31T04:20:25.972Z,6.42
2019-05-31T04:20:59.457Z,6.67
2019-05-31T04:21:33.355Z,8.13
2019-05-31T04:22:07.218Z,6.60
2019-05-31T04:22:40.643Z,7.75
2019-05-31T04:23:15.700Z,7.20
2019-05-31T04:23:50.287Z,7.28
2019-05-31T04:24:24.126Z,7.22
2019-05-31T04:24:59.919Z,6.55
2019-05-31T04:25:33.804Z,7.15
2019-05-31T04:26:07.291Z,6.55
2019-05-31T04:26:41.171Z,7.15
2019-05-31T04:27:15.834Z,7.25
2019-05-31T04:27:49.516Z,6.78
2019-05-31T04:28:26.291Z,7.45
2019-05-31T04:28:58.999Z,7.05
2019-05-31T04:29:32.503Z,7.92
2019-05-31T04:30:06.482Z,6.72
2019-05-31T04:30:40.407Z,6.65
2019-05-31T04:31:15.599Z,7.35
2019-05-31T04:31:49.505Z,7.55
2019-05-31T04:32:24.543Z,7.10
2019-05-31T04:32:58.661Z,7.17
2019-05-31T04:33:32.614Z,7.25
2019-05-31T04:34:06.486Z,7.17
2019-05-31T04:34:40.378Z,7.20
2019-05-31T04:35:16.065Z,7.40
2019-05-31T04:35:49.859Z,7.45
2019-05-31T04:36:24.286Z,6.47
2019-05-31T04:36:58.374Z,7.22
2019-05-31T04:37:32.255Z,8.18
2019-05-31T04:38:05.954Z,6.80
2019-05-31T04:38:39.839Z,6.60
2019-05-31T04:39:13.707Z,6.78
2019-05-31T04:39:47.218Z,7.17
2019-05-31T04:40:23.257Z,7.17
2019-05-31T04:40:56.713Z,7.12
2019-05-31T04:41:30.248Z,7.78
2019-05-31T04:42:04.101Z,7.28
2019-05-31T04:42:38.001Z,7.35
2019-05-31T04:43:11.508Z,6.90
2019-05-31T04:43:45.406Z,7.08
2019-05-31T04:44:20.577Z,7.30
2019-05-31T04:44:55.282Z,7.22
2019-05-31T04:45:29.160Z,6.90
2019-05-31T04:46:03.051Z,7.35
2019-05-31T04:46:36.597Z,7.25
2019-05-31T04:47:12.004Z,7.35
2019-05-31T04:47:46.248Z,6.70
2019-05-31T04:48:20.307Z,7.05
2019-05-31T04:48:54.387Z,7.00
2019-05-31T04:49:28.296Z,6.80
2019-05-31T04:50:01.792Z,7.55
2019-05-31T04:50:35.966Z,7.28
2019-05-31T04:51:09.911Z,8.03
2019-05-31T04:51:43.397Z,7.42
2019-05-31T04:52:18.298Z,7.53
2019-05-31T04:52:52.437Z,7.05
2019-05-31T04:53:27.351Z,7.40
2019-05-31T04:54:01.550Z,6.83
2019-05-31T04:54:35.367Z,6.85
2019-05-31T04:55:08.893Z,7.40
2019-05-31T04:55:42.779Z,7.50
2019-05-31T04:56:18.592Z,7.60
2019-05-31T04:56:51.913Z,7.08
2019-05-31T04:57:26.683Z,7.42
2019-05-31T04:58:01.444Z,7.50
2019-05-31T04:58:34.875Z,7.20
2019-05-31T04:59:08.771Z,7.40
2019-05-31T04:59:42.886Z,7.85
2019-05-31T05:00:19.145Z,7.12
2019-05-31T05:00:53.063Z,7.75
2019-05-31T05:01:26.965Z,6.97
2019-05-31T05:02:00.443Z,7.20
2019-05-31T05:02:34.362Z,7.50
2019-05-31T05:03:08.326Z,7.37
2019-05-31T05:03:41.815Z,7.78
2019-05-31T05:04:16.299Z,8.10
2019-05-31T05:04:50.400Z,7.00
2019-05-31T05:05:24.884Z,7.97
2019-05-31T05:05:59.371Z,7.20
2019-05-31T05:06:33.351Z,7.25
2019-05-31T05:07:06.943Z,7.83
2019-05-31T05:07:40.857Z,7.42
2019-05-31T05:08:16.431Z,6.97
2019-05-31T05:08:49.969Z,8.13
2019-05-31T05:09:29.522Z,7.60
2019-05-31T05:09:59.566Z,6.78
2019-05-31T05:10:33.982Z,7.60
2019-05-31T05:11:07.858Z,7.40
2019-05-31T05:11:41.756Z,7.62
2019-05-31T05:12:16.487Z,7.55
2019-05-31T05:12:50.592Z,7.90
2019-05-31T05:13:24.722Z,7.47
2019-05-31T05:13:58.350Z,7.67
2019-05-31T05:14:32.287Z,7.10
2019-05-31T05:15:06.408Z,7.40
2019-05-31T05:15:40.122Z,7.58
2019-05-31T05:16:14.073Z,6.90
2019-05-31T05:16:48.009Z,7.33
2019-05-31T05:17:34.348Z,7.22
2019-05-31T05:17:57.134Z,7.75
2019-05-31T05:18:31.020Z,7.47
2019-05-31T05:19:04.526Z,7.78
2019-05-31T05:19:38.439Z,7.92
2019-05-31T05:20:13.794Z,7.87
2019-05-31T05:20:47.543Z,6.97
2019-05-31T05:21:22.577Z,7.80
2019-05-31T05:21:56.656Z,7.90
2019-05-31T05:22:30.152Z,6.85
2019-05-31T05:23:04.027Z,7.60
2019-05-31T05:23:37.893Z,7.90
2019-05-31T05:24:11.297Z,8.00
2019-05-31T05:24:45.249Z,7.05
2019-05-31T05:25:19.611Z,7.25
2019-05-31T05:25:53.092Z,6.67
2019-05-31T05:26:27.434Z,6.78
2019-05-31T05:27:01.494Z,7.80
2019-05-31T05:27:34.982Z,6.90
2019-05-31T05:28:08.866Z,7.20
2019-05-31T05:28:42.739Z,7.50
2019-05-31T05:29:17.377Z,7.12
2019-05-31T05:29:51.515Z,6.47
2019-05-31T05:30:26.295Z,7.22
2019-05-31T05:30:59.780Z,7.58
2019-05-31T05:31:33.649Z,7.00
2019-05-31T05:32:07.544Z,7.25
2019-05-31T05:32:41.055Z,7.42
2019-05-31T05:33:14.907Z,6.90
2019-05-31T05:33:48.790Z,7.25
2019-05-31T05:34:22.228Z,6.72
2019-05-31T05:34:56.165Z,7.08
2019-05-31T05:35:30.426Z,7.25
2019-05-31T05:36:04.027Z,7.47
2019-05-31T05:36:39.265Z,7.00
2019-05-31T05:37:13.159Z,7.25
2019-05-31T05:37:46.638Z,7.28
2019-05-31T05:38:24.559Z,7.33
2019-05-31T05:39:05.654Z,6.90
2019-05-31T05:39:39.083Z,7.15
2019-05-31T05:40:24.799Z,7.10
2019-05-31T05:40:58.849Z,8.38
2019-05-31T05:41:51.450Z,7.28
2019-05-31T05:42:25.375Z,7.20
2019-05-31T05:43:05.336Z,6.78
2019-05-31T05:43:41.806Z,7.78
2019-05-31T05:44:15.689Z,7.55
2019-05-31T05:44:49.674Z,7.80
2019-05-31T05:45:23.408Z,7.70
2019-05-31T05:45:57.434Z,7.28
2019-05-31T05:46:31.319Z,6.90
2019-05-31T05:47:04.808Z,7.25
2019-05-31T05:47:47.628Z,7.70
2019-05-31T05:48:14.364Z,7.55
2019-05-31T05:48:47.851Z,7.50
2019-05-31T05:49:22.372Z,8.00
2019-05-31T05:49:59.746Z,7.47
2019-05-31T05:50:33.259Z,8.05
2019-05-31T05:51:07.173Z,7.78
2019-05-31T05:51:41.056Z,7.87
2019-05-31T05:52:14.569Z,7.62
2019-05-31T05:52:48.430Z,7.87
2019-05-31T05:53:22.375Z,7.53
2019-05-31T05:53:55.969Z,7.28
2019-05-31T05:54:30.725Z,7.87
2019-05-31T05:55:05.091Z,7.37
2019-05-31T05:55:38.575Z,7.25
2019-05-31T05:56:12.523Z,6.83
2019-05-31T05:56:46.434Z,6.72
2019-05-31T05:57:20.646Z,6.65
2019-05-31T05:57:54.797Z,7.83
2019-05-31T05:58:30.178Z,7.15
2019-05-31T05:59:03.912Z,6.75
2019-05-31T05:59:37.846Z,6.40
2019-05-31T06:00:12.707Z,7.17
2019-05-31T06:00:46.211Z,6.97
2019-05-31T06:01:21.325Z,7.30
2019-05-31T06:01:55.458Z,6.83
2019-05-31T06:02:29.594Z,7.35
2019-05-31T06:03:03.635Z,7.80
2019-05-31T06:03:37.615Z,7.17
2019-05-31T06:04:11.098Z,6.30
2019-05-31T06:04:44.989Z,7.17
2019-05-31T06:05:18.878Z,7.83
2019-05-31T06:05:53.238Z,6.95
2019-05-31T06:06:28.190Z,7.97
2019-05-31T06:07:02.447Z,7.08
2019-05-31T06:07:35.974Z,6.15
2019-05-31T06:08:09.842Z,7.70
2019-05-31T06:08:43.710Z,7.10
2019-05-31T06:09:17.206Z,6.92
2019-05-31T06:09:51.136Z,7.40
2019-05-31T06:10:25.023Z,6.50
2019-05-31T06:10:59.468Z,7.12
2019-05-31T06:11:33.557Z,7.05
2019-05-31T06:12:07.656Z,7.05
2019-05-31T06:12:41.222Z,6.33
2019-05-31T06:13:15.188Z,7.05
2019-05-31T06:13:49.189Z,7.60
2019-05-31T06:14:23.883Z,6.80
2019-05-31T06:14:58.010Z,6.65
2019-05-31T06:15:32.138Z,6.70
2019-05-31T06:16:06.707Z,7.45
2019-05-31T06:16:59.958Z,6.87
2019-05-31T06:17:16.516Z,7.55
2019-05-31T06:18:00.982Z,6.45
2019-05-31T06:18:26.116Z,6.33
2019-05-31T06:19:00.027Z,7.33
2019-05-31T06:19:33.519Z,7.00
2019-05-31T06:20:07.601Z,6.60
2019-05-31T06:20:41.498Z,7.03
2019-05-31T06:21:14.998Z,6.35
2019-05-31T06:21:48.901Z,6.20
2019-05-31T06:22:22.782Z,6.72
2019-05-31T06:22:56.303Z,6.47
2019-05-31T06:23:30.689Z,6.78
2019-05-31T06:24:04.835Z,7.10
2019-05-31T06:24:38.347Z,6.87
2019-05-31T06:25:12.642Z,6.72
2019-05-31T06:25:46.540Z,6.67
2019-05-31T06:26:20.978Z,7.20
2019-05-31T06:26:54.861Z,7.60
2019-05-31T06:27:28.737Z,7.30
2019-05-31T06:28:02.246Z,6.65
2019-05-31T06:28:37.070Z,6.80
2019-05-31T06:29:11.216Z,6.87
2019-05-31T06:29:45.101Z,6.95
2019-05-31T06:30:19.174Z,5.80
2019-05-31T06:30:53.131Z,6.87
2019-05-31T06:31:28.679Z,7.22
2019-05-31T06:32:02.813Z,6.35
2019-05-31T06:32:37.363Z,7.75
2019-05-31T06:33:11.193Z,6.87
2019-05-31T06:33:45.085Z,6.90
2019-05-31T06:34:19.053Z,7.42
2019-05-31T06:34:52.608Z,7.08
2019-05-31T06:35:27.027Z,6.50
2019-05-31T06:36:01.355Z,7.33
2019-05-31T06:36:37.072Z,7.20
2019-05-31T06:37:11.586Z,6.80
2019-05-31T06:37:45.478Z,5.97
2019-05-31T06:38:18.990Z,7.17
2019-05-31T06:38:52.871Z,7.42
2019-05-31T06:39:27.092Z,6.15
2019-05-31T06:40:00.799Z,7.20
2019-05-31T06:40:35.547Z,7.30
2019-05-31T06:41:09.660Z,6.45
2019-05-31T06:41:43.374Z,6.78
2019-05-31T06:42:17.255Z,7.28
2019-05-31T06:42:51.176Z,7.10
2019-05-31T06:43:28.965Z,7.12
2019-05-31T06:44:00.598Z,7.05
2019-05-31T06:44:35.425Z,6.42
2019-05-31T06:45:09.063Z,6.92
2019-05-31T06:45:42.977Z,6.30
2019-05-31T06:46:16.856Z,7.70
2019-05-31T06:46:50.397Z,6.90
2019-05-31T06:47:24.492Z,7.05
2019-05-31T06:47:58.697Z,6.28
2019-05-31T06:48:32.198Z,6.97
2019-05-31T06:49:06.096Z,7.05
2019-05-31T06:49:39.990Z,6.75
2019-05-31T06:50:13.485Z,7.03
2019-05-31T06:50:47.437Z,6.10
2019-05-31T06:51:21.422Z,7.30
2019-05-31T06:51:54.959Z,6.33
2019-05-31T06:52:32.193Z,6.78
2019-05-31T06:53:06.253Z,6.85
2019-05-31T06:53:45.264Z,5.85
2019-05-31T06:54:19.161Z,6.62
2019-05-31T06:54:53.134Z,6.47
2019-05-31T06:55:27.320Z,6.80
2019-05-31T06:56:01.426Z,7.12
2019-05-31T06:56:35.849Z,5.78
2019-05-31T06:57:09.616Z,6.42
2019-05-31T06:57:43.538Z,6.75
2019-05-31T06:58:17.468Z,7.03
2019-05-31T06:58:51.272Z,6.85
2019-05-31T06:59:25.988Z,6.70
2019-05-31T06:59:59.961Z,7.33
2019-05-31T07:00:35.059Z,6.80
2019-05-31T07:01:09.121Z,6.67
2019-05-31T07:01:43.016Z,6.90
2019-05-31T07:02:16.603Z,6.55
2019-05-31T07:02:50.730Z,6.62
2019-05-31T07:03:24.609Z,7.50
2019-05-31T07:03:58.149Z,6.87
2019-05-31T07:04:32.977Z,7.30
2019-05-31T07:05:07.300Z,7.50
2019-05-31T07:05:56.293Z,7.10
2019-05-31T07:06:16.461Z,6.12
2019-05-31T07:06:50.445Z,6.70
2019-05-31T07:07:25.521Z,7.35
2019-05-31T07:07:59.826Z,6.83
2019-05-31T07:08:34.985Z,6.70
2019-05-31T07:09:09.262Z,7.30
2019-05-31T07:09:43.144Z,6.30
2019-05-31T07:10:18.866Z,7.40
2019-05-31T07:10:55.703Z,7.10
2019-05-31T07:11:29.626Z,6.45
2019-05-31T07:12:16.760Z,6.90
2019-05-31T07:12:42.237Z,7.30
2019-05-31T07:13:16.608Z,6.55
2019-05-31T07:13:50.448Z,7.22
2019-05-31T07:14:24.150Z,6.67
2019-05-31T07:14:58.144Z,7.28
2019-05-31T07:15:35.404Z,6.55
2019-05-31T07:16:09.492Z,7.17
2019-05-31T07:16:43.596Z,7.20
2019-05-31T07:17:20.680Z,7.62
2019-05-31T07:17:55.724Z,6.70
2019-05-31T07:18:38.213Z,6.60
2019-05-31T07:19:06.040Z,7.20
2019-05-31T07:19:39.569Z,6.92
2019-05-31T07:20:14.321Z,7.53
2019-05-31T07:20:48.263Z,7.25
2019-05-31T07:21:21.803Z,7.92
2019-05-31T07:21:55.691Z,6.62
2019-05-31T07:22:30.488Z,7.65
2019-05-31T07:23:04.355Z,7.28
2019-05-31T07:23:42.885Z,7.60
2019-05-31T07:24:14.262Z,7.08
2019-05-31T07:24:47.807Z,8.93
2019-05-31T07:25:21.916Z,8.15
2019-05-31T07:25:59.232Z,7.17
2019-05-31T07:26:33.011Z,7.60
2019-05-31T07:27:07.297Z,7.83
2019-05-31T07:27:50.289Z,8.03
2019-05-31T07:28:24.640Z,7.67
2019-05-31T07:29:01.132Z,8.38
2019-05-31T07:29:39.625Z,7.10
2019-05-31T07:30:10.883Z,7.20
2019-05-31T07:30:44.850Z,6.70
2019-05-31T07:31:18.890Z,6.95
2019-05-31T07:31:52.471Z,7.72
2019-05-31T07:32:29.546Z,7.00
2019-05-31T07:33:03.991Z,7.80
2019-05-31T07:33:38.246Z,6.42
2019-05-31T07:34:12.260Z,7.53
2019-05-31T07:34:47.443Z,7.20
2019-05-31T07:35:21.133Z,6.85
2019-05-31T07:35:55.509Z,7.30
2019-05-31T07:36:30.130Z,7.20
2019-05-31T07:37:05.340Z,7.40
2019-05-31T07:37:42.137Z,7.40
2019-05-31T07:38:15.168Z,7.00